LFSB 150230Z AUTO 33004KT 9999 OVC027 M00/M03 Q1023 TEMPO 4000 BR BKN007

ElémentsDécodage
LFSB Station météo située sur l'aérodrome de BALE Mulhouse
150230Z émis le 15 du mois à 02h30 UTC
AUTO Bulletin édité par un automate
33004KT vent du 330°, 04 noeuds
9999 visibilité horizontale supérieure à 10 Km
OVC027 couverture nuageuse totale (8/8) à 2700 pieds
M00/M03 température 00°C, point de rosée -03°C
 soit une humidité relative de 80%
Q1023 la pression au niveau de la mer (QNH) est de 1023 hPa
TEMPO fluctuation temporaire prévue
4000 visibilité horizontale de 4000 mètres
BR brume
BKN007 nuages morcelés (5/8 à 7/8) à 700 pieds